sensor_id;sensor_type;location;lat;lon;timestamp;pressure;altitude;pressure_sealevel;temperature;humidity
28000;BME280;15328;50.860;10.562;2023-04-01T00:02:34;94718.09;;;9.68;69.09
28000;BME280;15328;50.860;10.562;2023-04-01T00:07:39;94723.16;;;9.69;68.88
28000;BME280;15328;50.860;10.562;2023-04-01T00:12:40;94713.38;;;9.75;68.93
28000;BME280;15328;50.860;10.562;2023-04-01T00:17:41;94709.84;;;9.64;69.43
28000;BME280;15328;50.860;10.562;2023-04-01T00:22:41;94706.69;;;9.67;69.53
28000;BME280;15328;50.860;10.562;2023-04-01T00:27:42;94709.63;;;9.71;68.92
28000;BME280;15328;50.860;10.562;2023-04-01T00:32:42;94706.31;;;9.58;69.62
28000;BME280;15328;50.860;10.562;2023-04-01T00:37:42;94709.28;;;9.62;69.47
28000;BME280;15328;50.860;10.562;2023-04-01T00:42:43;94686.72;;;9.59;68.95
28000;BME280;15328;50.860;10.562;2023-04-01T00:47:43;94685.91;;;9.59;68.99
28000;BME280;15328;50.860;10.562;2023-04-01T00:52:43;94692.72;;;9.50;69.24
28000;BME280;15328;50.860;10.562;2023-04-01T00:57:45;94697.19;;;9.44;70.04
28000;BME280;15328;50.860;10.562;2023-04-01T01:02:46;94689.88;;;9.29;69.83
28000;BME280;15328;50.860;10.562;2023-04-01T01:08:15;94696.31;;;9.34;70.26
28000;BME280;15328;50.860;10.562;2023-04-01T01:13:40;94694.25;;;9.41;69.70
28000;BME280;15328;50.860;10.562;2023-04-01T01:18:58;94684.09;;;9.33;69.58
28000;BME280;15328;50.860;10.562;2023-04-01T01:39:51;94680.13;;;9.35;68.83
28000;BME280;15328;50.860;10.562;2023-04-01T01:44:53;94689.72;;;9.41;68.79
28000;BME280;15328;50.860;10.562;2023-04-01T01:49:56;94676.28;;;9.21;69.33
28000;BME280;15328;50.860;10.562;2023-04-01T01:54:57;94678.72;;;9.27;69.22
28000;BME280;15328;50.860;10.562;2023-04-01T02:00:07;94675.53;;;9.25;68.90
28000;BME280;15328;50.860;10.562;2023-04-01T02:05:18;94673.53;;;9.11;69.86
28000;BME280;15328;50.860;10.562;2023-04-01T02:10:21;94664.53;;;9.12;69.88
28000;BME280;15328;50.860;10.562;2023-04-01T02:15:24;94663.72;;;9.11;69.74
28000;BME280;15328;50.860;10.562;2023-04-01T02:20:28;94664.66;;;9.27;69.28
28000;BME280;15328;50.860;10.562;2023-04-01T02:25:34;94670.47;;;9.24;69.34
28000;BME280;15328;50.860;10.562;2023-04-01T02:30:36;94663.56;;;9.23;69.82
28000;BME280;15328;50.860;10.562;2023-04-01T02:35:39;94665.06;;;9.14;69.76
28000;BME280;15328;50.860;10.562;2023-04-01T02:40:45;94663.69;;;9.06;70.40
28000;BME280;15328;50.860;10.562;2023-04-01T02:45:46;94667.94;;;9.07;70.64
28000;BME280;15328;50.860;10.562;2023-04-01T02:50:46;94664.78;;;9.10;70.36
28000;BME280;15328;50.860;10.562;2023-04-01T02:55:47;94663.72;;;9.11;70.56
28000;BME280;15328;50.860;10.562;2023-04-01T03:00:50;94671.44;;;9.13;70.22
28000;BME280;15328;50.860;10.562;2023-04-01T03:05:50;94681.44;;;9.06;70.07
28000;BME280;15328;50.860;10.562;2023-04-01T03:10:51;94666.63;;;9.10;70.06
28000;BME280;15328;50.860;10.562;2023-04-01T03:15:51;94682.56;;;9.10;70.28
28000;BME280;15328;50.860;10.562;2023-04-01T03:20:52;94666.13;;;9.13;69.59
28000;BME280;15328;50.860;10.562;2023-04-01T03:25:52;94670.88;;;9.11;69.47
28000;BME280;15328;50.860;10.562;2023-04-01T03:30:52;94679.44;;;9.18;69.80
28000;BME280;15328;50.860;10.562;2023-04-01T03:35:52;94676.75;;;9.13;69.31
28000;BME280;15328;50.860;10.562;2023-04-01T03:40:53;94696.03;;;8.81;70.15
28000;BME280;15328;50.860;10.562;2023-04-01T03:45:53;94676.03;;;8.95;70.17
28000;BME280;15328;50.860;10.562;2023-04-01T03:50:54;94689.97;;;9.08;69.55
28000;BME280;15328;50.860;10.562;2023-04-01T03:55:55;94694.13;;;9.04;69.97
28000;BME280;15328;50.860;10.562;2023-04-01T04:00:55;94689.16;;;9.07;69.99
28000;BME280;15328;50.860;10.562;2023-04-01T04:05:56;94679.13;;;9.14;69.54
28000;BME280;15328;50.860;10.562;2023-04-01T04:10:56;94690.81;;;9.13;69.00
28000;BME280;15328;50.860;10.562;2023-04-01T04:15:58;94683.31;;;9.05;68.79
28000;BME280;15328;50.860;10.562;2023-04-01T04:20:58;94683.06;;;9.07;68.67
28000;BME280;15328;50.860;10.562;2023-04-01T04:26:03;94694.34;;;8.97;69.00
28000;BME280;15328;50.860;10.562;2023-04-01T04:31:04;94691.09;;;8.90;68.84
28000;BME280;15328;50.860;10.562;2023-04-01T04:36:05;94698.94;;;8.80;69.45
28000;BME280;15328;50.860;10.562;2023-04-01T04:41:13;94710.19;;;8.92;68.90
28000;BME280;15328;50.860;10.562;2023-04-01T04:46:14;94700.66;;;8.91;68.85
28000;BME280;15328;50.860;10.562;2023-04-01T04:51:16;94699.28;;;8.88;68.60
28000;BME280;15328;50.860;10.562;2023-04-01T04:56:21;94712.06;;;8.91;68.60
28000;BME280;15328;50.860;10.562;2023-04-01T05:01:22;94710.09;;;8.82;68.94
28000;BME280;15328;50.860;10.562;2023-04-01T05:06:22;94711.16;;;8.81;69.35
28000;BME280;15328;50.860;10.562;2023-04-01T05:11:22;94712.06;;;8.91;69.05
28000;BME280;15328;50.860;10.562;2023-04-01T05:16:23;94712.56;;;8.88;69.56
28000;BME280;15328;50.860;10.562;2023-04-01T05:21:23;94721.13;;;8.74;69.15
28000;BME280;15328;50.860;10.562;2023-04-01T05:26:24;94710.16;;;8.87;68.76
28000;BME280;15328;50.860;10.562;2023-04-01T05:31:24;94706.41;;;8.83;68.90
28000;BME280;15328;50.860;10.562;2023-04-01T05:36:25;94713.81;;;8.81;69.34
28000;BME280;15328;50.860;10.562;2023-04-01T05:41:26;94708.09;;;8.94;68.66
28000;BME280;15328;50.860;10.562;2023-04-01T05:46:26;94708.91;;;8.94;68.70
28000;BME280;15328;50.860;10.562;2023-04-01T05:51:27;94720.34;;;9.00;68.98
28000;BME280;15328;50.860;10.562;2023-04-01T05:56:27;94712.28;;;9.12;68.56
28000;BME280;15328;50.860;10.562;2023-04-01T06:01:27;94715.28;;;9.20;68.02
28000;BME280;15328;50.860;10.562;2023-04-01T06:06:30;94722.69;;;9.18;68.43
28000;BME280;15328;50.860;10.562;2023-04-01T06:21:55;94727.19;;;9.18;68.29
28000;BME280;15328;50.860;10.562;2023-04-01T06:48:37;94734.50;;;9.06;69.42
28000;BME280;15328;50.860;10.562;2023-04-01T06:53:49;94733.50;;;8.90;69.47
28000;BME280;15328;50.860;10.562;2023-04-01T06:59:00;94734.97;;;9.03;69.28
28000;BME280;15328;50.860;10.562;2023-04-01T07:04:11;94731.16;;;9.15;68.83
28000;BME280;15328;50.860;10.562;2023-04-01T07:09:18;94734.28;;;9.12;69.54
28000;BME280;15328;50.860;10.562;2023-04-01T07:14:27;94739.16;;;9.20;69.38
28000;BME280;15328;50.860;10.562;2023-04-01T07:24:36;94732.53;;;9.23;69.65
28000;BME280;15328;50.860;10.562;2023-04-01T07:29:39;94735.78;;;9.30;69.80
28000;BME280;15328;50.860;10.562;2023-04-01T07:56:12;94762.75;;;9.44;69.30
28000;BME280;15328;50.860;10.562;2023-04-01T08:01:30;94758.56;;;9.53;68.92
28000;BME280;15328;50.860;10.562;2023-04-01T08:06:43;94765.16;;;9.45;68.77
28000;BME280;15328;50.860;10.562;2023-04-01T08:22:21;94775.25;;;9.48;69.16
28000;BME280;15328;50.860;10.562;2023-04-01T08:27:44;94778.56;;;9.60;68.78
28000;BME280;15328;50.860;10.562;2023-04-01T08:32:54;94780.06;;;9.51;69.04
28000;BME280;15328;50.860;10.562;2023-04-01T08:38:00;94777.81;;;9.65;68.80
28000;BME280;15328;50.860;10.562;2023-04-01T09:31:29;94807.03;;;10.24;67.88
28000;BME280;15328;50.860;10.562;2023-04-01T09:52:10;94813.88;;;10.20;68.21
28000;BME280;15328;50.860;10.562;2023-04-01T10:35:07;94820.81;;;11.05;66.98
28000;BME280;15328;50.860;10.562;2023-04-01T10:40:20;94819.59;;;11.28;66.61
28000;BME280;15328;50.860;10.562;2023-04-01T10:45:44;94817.66;;;11.19;65.61
28000;BME280;15328;50.860;10.562;2023-04-01T11:28:15;94821.97;;;11.25;65.17
28000;BME280;15328;50.860;10.562;2023-04-01T11:33:34;94819.88;;;11.42;65.02
28000;BME280;15328;50.860;10.562;2023-04-01T11:49:29;94835.66;;;11.54;64.99
28000;BME280;15328;50.860;10.562;2023-04-01T12:06:09;94852.44;;;11.59;65.44
28000;BME280;15328;50.860;10.562;2023-04-01T12:11:23;94845.00;;;11.66;64.87
28000;BME280;15328;50.860;10.562;2023-04-01T12:16:55;94846.34;;;11.74;65.64
28000;BME280;15328;50.860;10.562;2023-04-01T13:15:19;94878.72;;;12.44;62.93
28000;BME280;15328;50.860;10.562;2023-04-01T13:25:40;94876.59;;;12.51;62.03
28000;BME280;15328;50.860;10.562;2023-04-01T13:46:59;94894.72;;;12.74;62.83
28000;BME280;15328;50.860;10.562;2023-04-01T14:40:27;94923.00;;;12.50;62.25
28000;BME280;15328;50.860;10.562;2023-04-01T14:51:16;94924.84;;;12.59;62.71
28000;BME280;15328;50.860;10.562;2023-04-01T14:56:41;94934.72;;;12.44;63.53
28000;BME280;15328;50.860;10.562;2023-04-01T15:02:14;94935.75;;;12.27;63.40
28000;BME280;15328;50.860;10.562;2023-04-01T15:13:13;94936.56;;;12.23;63.43
28000;BME280;15328;50.860;10.562;2023-04-01T15:23:50;94947.22;;;12.18;62.94
28000;BME280;15328;50.860;10.562;2023-04-01T15:50:41;94971.69;;;12.04;64.05
28000;BME280;15328;50.860;10.562;2023-04-01T16:12:24;94999.19;;;12.25;63.08
28000;BME280;15328;50.860;10.562;2023-04-01T16:22:57;94992.97;;;11.99;64.39
28000;BME280;15328;50.860;10.562;2023-04-01T16:33:40;95005.78;;;11.97;64.33
28000;BME280;15328;50.860;10.562;2023-04-01T16:39:11;95008.41;;;11.87;65.05
28000;BME280;15328;50.860;10.562;2023-04-01T16:44:21;95023.22;;;11.73;65.08
28000;BME280;15328;50.860;10.562;2023-04-01T16:49:32;95022.16;;;11.74;64.76
28000;BME280;15328;50.860;10.562;2023-04-01T17:00:09;95039.47;;;11.76;64.68
28000;BME280;15328;50.860;10.562;2023-04-01T17:05:15;95045.00;;;11.60;64.71
28000;BME280;15328;50.860;10.562;2023-04-01T17:10:43;95049.00;;;11.62;64.23
28000;BME280;15328;50.860;10.562;2023-04-01T17:15:46;95050.28;;;11.55;64.38
28000;BME280;15328;50.860;10.562;2023-04-01T17:21:07;95056.06;;;11.46;64.20
28000;BME280;15328;50.860;10.562;2023-04-01T17:26:48;95067.53;;;11.47;64.31
28000;BME280;15328;50.860;10.562;2023-04-01T17:37:19;95081.44;;;11.22;64.79
28000;BME280;15328;50.860;10.562;2023-04-01T17:42:46;95092.06;;;11.17;65.11
28000;BME280;15328;50.860;10.562;2023-04-01T17:53:42;95114.00;;;10.97;64.47
28000;BME280;15328;50.860;10.562;2023-04-01T18:04:18;95122.84;;;10.81;65.47
28000;BME280;15328;50.860;10.562;2023-04-01T18:09:51;95133.41;;;10.71;65.97
28000;BME280;15328;50.860;10.562;2023-04-01T18:15:05;95129.25;;;10.58;66.37
28000;BME280;15328;50.860;10.562;2023-04-01T18:26:01;95154.78;;;10.59;67.14
28000;BME280;15328;50.860;10.562;2023-04-01T18:36:35;95165.38;;;10.54;68.05
28000;BME280;15328;50.860;10.562;2023-04-01T18:52:39;95190.53;;;10.46;69.07
28000;BME280;15328;50.860;10.562;2023-04-01T18:57:49;95196.91;;;10.45;69.55
28000;BME280;15328;50.860;10.562;2023-04-01T19:08:18;95210.78;;;10.31;70.64
28000;BME280;15328;50.860;10.562;2023-04-01T19:13:32;95221.13;;;10.27;70.97
28000;BME280;15328;50.860;10.562;2023-04-01T19:24:23;95229.34;;;10.26;71.38
28000;BME280;15328;50.860;10.562;2023-04-01T19:34:59;95243.44;;;10.26;71.44
28000;BME280;15328;50.860;10.562;2023-04-01T19:51:03;95257.22;;;10.23;71.72
28000;BME280;15328;50.860;10.562;2023-04-01T19:56:19;95266.00;;;10.24;72.02
28000;BME280;15328;50.860;10.562;2023-04-01T20:01:44;95274.91;;;10.17;72.15
28000;BME280;15328;50.860;10.562;2023-04-01T20:07:13;95275.81;;;10.23;71.78
28000;BME280;15328;50.860;10.562;2023-04-01T20:27:48;95307.66;;;10.06;73.36
28000;BME280;15328;50.860;10.562;2023-04-01T20:43:40;95328.84;;;10.01;73.23
28000;BME280;15328;50.860;10.562;2023-04-01T20:59:28;95332.78;;;9.99;73.18
28000;BME280;15328;50.860;10.562;2023-04-01T21:21:16;95372.81;;;10.09;73.27
28000;BME280;15328;50.860;10.562;2023-04-01T21:47:45;95407.66;;;9.96;72.55
28000;BME280;15328;50.860;10.562;2023-04-01T22:09:11;95442.84;;;10.03;73.53
28000;BME280;15328;50.860;10.562;2023-04-01T22:29:58;95463.38;;;10.07;73.03
28000;BME280;15328;50.860;10.562;2023-04-01T22:40:21;95465.06;;;9.97;73.23
28000;BME280;15328;50.860;10.562;2023-04-01T22:45:47;95478.59;;;9.95;72.85
28000;BME280;15328;50.860;10.562;2023-04-01T22:57:12;95493.94;;;9.93;72.98
28000;BME280;15328;50.860;10.562;2023-04-01T23:12:58;95510.94;;;9.80;72.85
28000;BME280;15328;50.860;10.562;2023-04-01T23:28:47;95535.91;;;9.79;72.99
28000;BME280;15328;50.860;10.562;2023-04-01T23:33:56;95561.53;;;9.74;73.21
28000;BME280;15328;50.860;10.562;2023-04-01T23:39:05;95580.16;;;9.62;72.62
28000;BME280;15328;50.860;10.562;2023-04-01T23:44:10;95598.16;;;9.37;72.49
28000;BME280;15328;50.860;10.562;2023-04-01T23:49:16;95603.22;;;9.15;71.90
28000;BME280;15328;50.860;10.562;2023-04-01T23:54:23;95619.53;;;8.88;72.05
28000;BME280;15328;50.860;10.562;2023-04-01T23:59:30;95624.47;;;8.85;71.52
